sensor_id;sensor_type;location;lat;lon;timestamp;temperature;humidity
39677;DHT22;27789;50.840;4.386;2022-09-09T00:04:46;16.70;99.90
39677;DHT22;27789;50.840;4.386;2022-09-09T00:09:50;16.70;99.90
39677;DHT22;27789;50.840;4.386;2022-09-09T00:14:54;16.60;99.90
39677;DHT22;27789;50.840;4.386;2022-09-09T00:22:25;16.50;99.90
39677;DHT22;27789;50.840;4.386;2022-09-09T00:24:55;16.50;99.90
39677;DHT22;27789;50.840;4.386;2022-09-09T00:27:24;16.50;99.90
39677;DHT22;27789;50.840;4.386;2022-09-09T00:29:58;16.40;99.90
39677;DHT22;27789;50.840;4.386;2022-09-09T00:32:27;16.40;99.90
39677;DHT22;27789;50.840;4.386;2022-09-09T00:34:57;16.50;99.90
39677;DHT22;27789;50.840;4.386;2022-09-09T00:37:24;16.50;99.90
39677;DHT22;27789;50.840;4.386;2022-09-09T00:39:54;16.60;99.90
39677;DHT22;27789;50.840;4.386;2022-09-09T00:45:08;16.60;99.90
39677;DHT22;27789;50.840;4.386;2022-09-09T00:50:07;16.50;99.90
39677;DHT22;27789;50.840;4.386;2022-09-09T00:57:36;16.60;99.90
39677;DHT22;27789;50.840;4.386;2022-09-09T01:00:16;16.60;99.90
39677;DHT22;27789;50.840;4.386;2022-09-09T01:07:52;16.70;99.90
39677;DHT22;27789;50.840;4.386;2022-09-09T01:10:27;16.60;99.90
39677;DHT22;27789;50.840;4.386;2022-09-09T01:12:54;16.70;99.90
39677;DHT22;27789;50.840;4.386;2022-09-09T01:15:25;16.70;99.90
39677;DHT22;27789;50.840;4.386;2022-09-09T01:20:35;16.70;99.90
39677;DHT22;27789;50.840;4.386;2022-09-09T01:28:05;16.80;99.90
39677;DHT22;27789;50.840;4.386;2022-09-09T01:30:37;16.80;99.90
39677;DHT22;27789;50.840;4.386;2022-09-09T01:33:03;16.70;99.90
39677;DHT22;27789;50.840;4.386;2022-09-09T01:37:58;16.70;99.90
39677;DHT22;27789;50.840;4.386;2022-09-09T01:40:24;16.70;99.90
39677;DHT22;27789;50.840;4.386;2022-09-09T01:42:49;16.60;99.90
39677;DHT22;27789;50.840;4.386;2022-09-09T01:45:15;16.60;99.90
39677;DHT22;27789;50.840;4.386;2022-09-09T01:47:41;16.60;99.90
39677;DHT22;27789;50.840;4.386;2022-09-09T01:50:09;16.50;99.90
39677;DHT22;27789;50.840;4.386;2022-09-09T01:52:36;16.50;99.90
39677;DHT22;27789;50.840;4.386;2022-09-09T01:55:02;16.40;99.90
39677;DHT22;27789;50.840;4.386;2022-09-09T01:57:31;16.50;99.90
39677;DHT22;27789;50.840;4.386;2022-09-09T02:00:00;16.50;99.90
39677;DHT22;27789;50.840;4.386;2022-09-09T02:05:03;16.40;99.90
39677;DHT22;27789;50.840;4.386;2022-09-09T02:07:38;16.40;99.90
39677;DHT22;27789;50.840;4.386;2022-09-09T02:12:42;16.40;99.90
39677;DHT22;27789;50.840;4.386;2022-09-09T02:15:17;16.40;99.90
39677;DHT22;27789;50.840;4.386;2022-09-09T02:17:45;16.40;99.90
39677;DHT22;27789;50.840;4.386;2022-09-09T02:20:12;16.50;99.90
39677;DHT22;27789;50.840;4.386;2022-09-09T02:22:40;16.50;99.90
39677;DHT22;27789;50.840;4.386;2022-09-09T02:25:08;16.40;99.90
39677;DHT22;27789;50.840;4.386;2022-09-09T02:27:35;16.40;99.90
39677;DHT22;27789;50.840;4.386;2022-09-09T02:30:01;16.50;99.90
39677;DHT22;27789;50.840;4.386;2022-09-09T02:32:27;16.50;99.90
39677;DHT22;27789;50.840;4.386;2022-09-09T02:35:14;16.40;99.90
39677;DHT22;27789;50.840;4.386;2022-09-09T02:37:41;16.40;99.90
39677;DHT22;27789;50.840;4.386;2022-09-09T02:40:08;16.50;99.90
39677;DHT22;27789;50.840;4.386;2022-09-09T02:42:39;16.50;99.90
39677;DHT22;27789;50.840;4.386;2022-09-09T02:45:05;16.50;99.90
39677;DHT22;27789;50.840;4.386;2022-09-09T02:47:35;16.40;99.90
39677;DHT22;27789;50.840;4.386;2022-09-09T02:55:35;16.50;99.90
39677;DHT22;27789;50.840;4.386;2022-09-09T02:57:57;16.50;99.90
39677;DHT22;27789;50.840;4.386;2022-09-09T03:00:25;16.50;99.90
39677;DHT22;27789;50.840;4.386;2022-09-09T03:02:50;16.40;99.90
39677;DHT22;27789;50.840;4.386;2022-09-09T03:05:16;16.50;99.90
39677;DHT22;27789;50.840;4.386;2022-09-09T03:07:42;16.40;99.90
39677;DHT22;27789;50.840;4.386;2022-09-09T03:10:07;16.40;99.90
39677;DHT22;27789;50.840;4.386;2022-09-09T03:12:33;16.40;99.90
39677;DHT22;27789;50.840;4.386;2022-09-09T03:14:58;16.30;99.90
39677;DHT22;27789;50.840;4.386;2022-09-09T03:17:24;16.30;99.90
39677;DHT22;27789;50.840;4.386;2022-09-09T03:19:49;16.30;99.90
39677;DHT22;27789;50.840;4.386;2022-09-09T03:22:17;16.30;99.90
39677;DHT22;27789;50.840;4.386;2022-09-09T03:24:43;16.30;99.90
39677;DHT22;27789;50.840;4.386;2022-09-09T03:27:08;16.30;99.90
39677;DHT22;27789;50.840;4.386;2022-09-09T03:29:34;16.30;99.90
39677;DHT22;27789;50.840;4.386;2022-09-09T03:31:59;16.30;99.90
39677;DHT22;27789;50.840;4.386;2022-09-09T03:34:25;16.30;99.90
39677;DHT22;27789;50.840;4.386;2022-09-09T03:36:50;16.20;99.90
39677;DHT22;27789;50.840;4.386;2022-09-09T03:39:16;16.20;99.90
39677;DHT22;27789;50.840;4.386;2022-09-09T03:41:42;16.20;99.90
39677;DHT22;27789;50.840;4.386;2022-09-09T03:44:07;16.20;99.90
39677;DHT22;27789;50.840;4.386;2022-09-09T03:46:32;16.10;99.90
39677;DHT22;27789;50.840;4.386;2022-09-09T03:48:59;16.20;99.90
39677;DHT22;27789;50.840;4.386;2022-09-09T03:51:24;16.20;99.90
39677;DHT22;27789;50.840;4.386;2022-09-09T03:53:49;16.10;99.90
39677;DHT22;27789;50.840;4.386;2022-09-09T03:56:15;16.10;99.90
39677;DHT22;27789;50.840;4.386;2022-09-09T03:58:41;16.10;99.90
39677;DHT22;27789;50.840;4.386;2022-09-09T04:01:10;16.20;99.90
39677;DHT22;27789;50.840;4.386;2022-09-09T04:03:38;16.30;99.90
39677;DHT22;27789;50.840;4.386;2022-09-09T04:06:04;16.30;99.90
39677;DHT22;27789;50.840;4.386;2022-09-09T04:08:31;16.30;99.90
39677;DHT22;27789;50.840;4.386;2022-09-09T04:10:57;16.30;99.90
39677;DHT22;27789;50.840;4.386;2022-09-09T04:13:23;16.30;99.90
39677;DHT22;27789;50.840;4.386;2022-09-09T04:15:52;16.30;99.90
39677;DHT22;27789;50.840;4.386;2022-09-09T04:18:18;16.30;99.90
39677;DHT22;27789;50.840;4.386;2022-09-09T04:20:47;16.30;99.90
39677;DHT22;27789;50.840;4.386;2022-09-09T04:23:13;16.20;99.90
39677;DHT22;27789;50.840;4.386;2022-09-09T04:25:43;16.20;99.90
39677;DHT22;27789;50.840;4.386;2022-09-09T04:28:08;16.20;99.90
39677;DHT22;27789;50.840;4.386;2022-09-09T04:30:34;16.20;99.90
39677;DHT22;27789;50.840;4.386;2022-09-09T04:33:01;16.20;99.90
39677;DHT22;27789;50.840;4.386;2022-09-09T04:35:26;16.20;99.90
39677;DHT22;27789;50.840;4.386;2022-09-09T04:37:52;16.20;99.90
39677;DHT22;27789;50.840;4.386;2022-09-09T04:40:17;16.20;99.90
39677;DHT22;27789;50.840;4.386;2022-09-09T04:42:43;16.20;99.90
39677;DHT22;27789;50.840;4.386;2022-09-09T04:45:09;16.20;99.90
39677;DHT22;27789;50.840;4.386;2022-09-09T04:47:36;16.20;99.90
39677;DHT22;27789;50.840;4.386;2022-09-09T04:50:02;16.10;99.90
39677;DHT22;27789;50.840;4.386;2022-09-09T04:52:27;16.10;99.90
39677;DHT22;27789;50.840;4.386;2022-09-09T04:54:53;16.20;99.90
39677;DHT22;27789;50.840;4.386;2022-09-09T04:57:19;16.10;99.90
39677;DHT22;27789;50.840;4.386;2022-09-09T04:59:45;16.10;99.90
39677;DHT22;27789;50.840;4.386;2022-09-09T05:02:11;16.10;99.90
39677;DHT22;27789;50.840;4.386;2022-09-09T05:04:37;16.20;99.90
39677;DHT22;27789;50.840;4.386;2022-09-09T05:07:02;16.20;99.90
39677;DHT22;27789;50.840;4.386;2022-09-09T05:09:28;16.30;99.90
39677;DHT22;27789;50.840;4.386;2022-09-09T05:11:54;16.20;99.90
39677;DHT22;27789;50.840;4.386;2022-09-09T05:14:20;16.30;99.90
39677;DHT22;27789;50.840;4.386;2022-09-09T05:16:45;16.30;99.90
39677;DHT22;27789;50.840;4.386;2022-09-09T05:19:12;16.20;99.90
39677;DHT22;27789;50.840;4.386;2022-09-09T05:21:37;16.30;99.90
39677;DHT22;27789;50.840;4.386;2022-09-09T05:24:03;16.30;99.90
39677;DHT22;27789;50.840;4.386;2022-09-09T05:26:29;16.40;99.90
39677;DHT22;27789;50.840;4.386;2022-09-09T05:28:57;16.40;99.90
39677;DHT22;27789;50.840;4.386;2022-09-09T05:31:24;16.40;99.90
39677;DHT22;27789;50.840;4.386;2022-09-09T05:33:52;16.40;99.90
39677;DHT22;27789;50.840;4.386;2022-09-09T05:36:19;16.40;99.90
39677;DHT22;27789;50.840;4.386;2022-09-09T05:38:45;16.50;99.90
39677;DHT22;27789;50.840;4.386;2022-09-09T05:41:11;16.40;99.90
39677;DHT22;27789;50.840;4.386;2022-09-09T05:43:38;16.50;99.90
39677;DHT22;27789;50.840;4.386;2022-09-09T05:46:06;16.50;99.90
39677;DHT22;27789;50.840;4.386;2022-09-09T05:48:38;16.50;99.90
39677;DHT22;27789;50.840;4.386;2022-09-09T05:51:05;16.50;99.90
39677;DHT22;27789;50.840;4.386;2022-09-09T05:53:34;16.50;99.90
39677;DHT22;27789;50.840;4.386;2022-09-09T05:56:06;16.50;99.90
39677;DHT22;27789;50.840;4.386;2022-09-09T05:58:32;16.40;99.90
39677;DHT22;27789;50.840;4.386;2022-09-09T06:01:08;16.40;99.90
39677;DHT22;27789;50.840;4.386;2022-09-09T06:03:34;16.40;99.90
39677;DHT22;27789;50.840;4.386;2022-09-09T06:06:00;16.40;99.90
39677;DHT22;27789;50.840;4.386;2022-09-09T06:08:26;16.50;99.90
39677;DHT22;27789;50.840;4.386;2022-09-09T06:10:52;16.40;99.90
39677;DHT22;27789;50.840;4.386;2022-09-09T06:13:17;16.50;99.90
39677;DHT22;27789;50.840;4.386;2022-09-09T06:15:50;16.50;99.90
39677;DHT22;27789;50.840;4.386;2022-09-09T06:18:15;16.60;99.90
39677;DHT22;27789;50.840;4.386;2022-09-09T06:20:43;16.60;99.90
39677;DHT22;27789;50.840;4.386;2022-09-09T06:23:08;16.70;99.90
39677;DHT22;27789;50.840;4.386;2022-09-09T06:25:34;16.70;99.90
39677;DHT22;27789;50.840;4.386;2022-09-09T06:27:59;16.70;99.90
39677;DHT22;27789;50.840;4.386;2022-09-09T06:30:25;16.80;99.90
39677;DHT22;27789;50.840;4.386;2022-09-09T06:32:51;16.90;99.90
39677;DHT22;27789;50.840;4.386;2022-09-09T06:35:16;16.90;99.90
39677;DHT22;27789;50.840;4.386;2022-09-09T06:37:44;16.90;99.90
39677;DHT22;27789;50.840;4.386;2022-09-09T06:40:10;16.90;99.90
39677;DHT22;27789;50.840;4.386;2022-09-09T06:42:36;16.90;99.90
39677;DHT22;27789;50.840;4.386;2022-09-09T06:45:01;17.00;99.90
39677;DHT22;27789;50.840;4.386;2022-09-09T06:47:28;17.00;99.90
39677;DHT22;27789;50.840;4.386;2022-09-09T06:49:53;17.10;99.90
39677;DHT22;27789;50.840;4.386;2022-09-09T06:52:19;17.10;99.90
39677;DHT22;27789;50.840;4.386;2022-09-09T06:54:44;17.10;99.90
39677;DHT22;27789;50.840;4.386;2022-09-09T06:57:10;17.10;99.90
39677;DHT22;27789;50.840;4.386;2022-09-09T06:59:36;17.30;99.90
39677;DHT22;27789;50.840;4.386;2022-09-09T07:02:02;17.30;99.90
39677;DHT22;27789;50.840;4.386;2022-09-09T07:04:27;17.40;99.90
39677;DHT22;27789;50.840;4.386;2022-09-09T07:06:53;17.30;99.90
39677;DHT22;27789;50.840;4.386;2022-09-09T07:09:18;17.30;99.90
39677;DHT22;27789;50.840;4.386;2022-09-09T07:11:45;17.30;99.90
39677;DHT22;27789;50.840;4.386;2022-09-09T07:14:11;17.30;99.90
39677;DHT22;27789;50.840;4.386;2022-09-09T07:16:40;17.40;99.90
39677;DHT22;27789;50.840;4.386;2022-09-09T07:19:05;17.40;99.90
39677;DHT22;27789;50.840;4.386;2022-09-09T07:21:31;17.40;99.90
39677;DHT22;27789;50.840;4.386;2022-09-09T07:23:57;17.40;99.90
39677;DHT22;27789;50.840;4.386;2022-09-09T07:26:24;17.30;99.90
39677;DHT22;27789;50.840;4.386;2022-09-09T07:28:50;17.30;99.90
39677;DHT22;27789;50.840;4.386;2022-09-09T07:31:20;17.30;99.90
39677;DHT22;27789;50.840;4.386;2022-09-09T07:33:46;17.20;99.90
39677;DHT22;27789;50.840;4.386;2022-09-09T07:36:15;17.20;99.90
39677;DHT22;27789;50.840;4.386;2022-09-09T07:38:43;17.20;99.90
39677;DHT22;27789;50.840;4.386;2022-09-09T07:41:11;17.20;99.90
39677;DHT22;27789;50.840;4.386;2022-09-09T07:43:41;17.20;99.90
39677;DHT22;27789;50.840;4.386;2022-09-09T07:46:07;17.20;99.90
39677;DHT22;27789;50.840;4.386;2022-09-09T07:48:33;17.10;99.90
39677;DHT22;27789;50.840;4.386;2022-09-09T07:53:35;17.00;99.90
39677;DHT22;27789;50.840;4.386;2022-09-09T07:56:05;17.00;99.90
39677;DHT22;27789;50.840;4.386;2022-09-09T07:58:31;17.00;99.90
39677;DHT22;27789;50.840;4.386;2022-09-09T08:00:56;17.10;99.90
39677;DHT22;27789;50.840;4.386;2022-09-09T08:03:22;17.20;99.90
39677;DHT22;27789;50.840;4.386;2022-09-09T08:05:48;17.30;99.90
39677;DHT22;27789;50.840;4.386;2022-09-09T08:08:14;17.30;99.90
39677;DHT22;27789;50.840;4.386;2022-09-09T08:10:42;17.50;99.90
39677;DHT22;27789;50.840;4.386;2022-09-09T08:13:08;17.60;99.90
39677;DHT22;27789;50.840;4.386;2022-09-09T08:15:33;17.70;99.90
39677;DHT22;27789;50.840;4.386;2022-09-09T08:17:59;17.70;99.90
39677;DHT22;27789;50.840;4.386;2022-09-09T08:20:25;17.80;99.90
39677;DHT22;27789;50.840;4.386;2022-09-09T08:22:50;17.80;99.90
39677;DHT22;27789;50.840;4.386;2022-09-09T08:25:16;17.70;99.90
39677;DHT22;27789;50.840;4.386;2022-09-09T08:27:41;17.70;99.90
39677;DHT22;27789;50.840;4.386;2022-09-09T08:30:07;17.70;99.90
39677;DHT22;27789;50.840;4.386;2022-09-09T08:32:32;17.70;99.90
39677;DHT22;27789;50.840;4.386;2022-09-09T08:35:00;17.70;99.90
39677;DHT22;27789;50.840;4.386;2022-09-09T08:37:26;17.70;99.90
39677;DHT22;27789;50.840;4.386;2022-09-09T08:39:51;17.70;99.90
39677;DHT22;27789;50.840;4.386;2022-09-09T08:53:18;17.50;99.90
39677;DHT22;27789;50.840;4.386;2022-09-09T08:55:26;17.60;99.90
39677;DHT22;27789;50.840;4.386;2022-09-09T08:57:55;17.70;99.90
39677;DHT22;27789;50.840;4.386;2022-09-09T09:00:20;17.80;99.90
39677;DHT22;27789;50.840;4.386;2022-09-09T09:07:59;17.90;99.90
39677;DHT22;27789;50.840;4.386;2022-09-09T09:10:47;17.80;99.90
39677;DHT22;27789;50.840;4.386;2022-09-09T09:16:06;17.60;99.90
39677;DHT22;27789;50.840;4.386;2022-09-09T09:18:34;17.50;99.90
39677;DHT22;27789;50.840;4.386;2022-09-09T09:23:43;17.30;99.90
39677;DHT22;27789;50.840;4.386;2022-09-09T09:26:10;17.30;99.90
39677;DHT22;27789;50.840;4.386;2022-09-09T09:28:37;17.20;99.90
39677;DHT22;27789;50.840;4.386;2022-09-09T09:31:09;17.20;99.90
39677;DHT22;27789;50.840;4.386;2022-09-09T09:36:06;17.00;99.90
39677;DHT22;27789;50.840;4.386;2022-09-09T09:38:33;17.00;99.90
39677;DHT22;27789;50.840;4.386;2022-09-09T09:40:59;17.00;99.90
39677;DHT22;27789;50.840;4.386;2022-09-09T09:43:32;17.00;99.90
39677;DHT22;27789;50.840;4.386;2022-09-09T09:45:58;17.10;99.90
39677;DHT22;27789;50.840;4.386;2022-09-09T09:48:25;17.20;99.90
39677;DHT22;27789;50.840;4.386;2022-09-09T09:50:54;17.30;99.90
39677;DHT22;27789;50.840;4.386;2022-09-09T09:53:27;17.30;99.90
39677;DHT22;27789;50.840;4.386;2022-09-09T09:58:27;17.40;99.90
39677;DHT22;27789;50.840;4.386;2022-09-09T10:00:57;17.30;99.90
39677;DHT22;27789;50.840;4.386;2022-09-09T10:03:25;17.40;99.90
39677;DHT22;27789;50.840;4.386;2022-09-09T10:05:51;17.40;99.90
39677;DHT22;27789;50.840;4.386;2022-09-09T10:08:17;17.50;99.90
39677;DHT22;27789;50.840;4.386;2022-09-09T10:34:15;17.60;99.90
39677;DHT22;27789;50.840;4.386;2022-09-09T10:36:46;17.90;99.90
39677;DHT22;27789;50.840;4.386;2022-09-09T10:41:46;18.10;99.90
39677;DHT22;27789;50.840;4.386;2022-09-09T10:49:12;18.10;99.90
39677;DHT22;27789;50.840;4.386;2022-09-09T10:56:35;18.40;99.90
39677;DHT22;27789;50.840;4.386;2022-09-09T10:59:20;18.40;99.90
39677;DHT22;27789;50.840;4.386;2022-09-09T11:01:57;18.50;99.90
39677;DHT22;27789;50.840;4.386;2022-09-09T11:07:02;18.70;99.90
39677;DHT22;27789;50.840;4.386;2022-09-09T11:09:32;18.70;99.90
39677;DHT22;27789;50.840;4.386;2022-09-09T11:11:58;18.80;99.90
39677;DHT22;27789;50.840;4.386;2022-09-09T11:17:04;19.00;99.90
39677;DHT22;27789;50.840;4.386;2022-09-09T11:24:53;19.30;99.90
39677;DHT22;27789;50.840;4.386;2022-09-09T11:27:21;19.10;99.90
39677;DHT22;27789;50.840;4.386;2022-09-09T11:35:09;19.00;99.90
39677;DHT22;27789;50.840;4.386;2022-09-09T11:40:14;18.80;99.90
39677;DHT22;27789;50.840;4.386;2022-09-09T11:42:42;18.70;99.90
39677;DHT22;27789;50.840;4.386;2022-09-09T11:45:08;18.60;99.90
39677;DHT22;27789;50.840;4.386;2022-09-09T11:47:34;18.50;99.90
39677;DHT22;27789;50.840;4.386;2022-09-09T11:52:38;18.70;99.90
39677;DHT22;27789;50.840;4.386;2022-09-09T11:55:10;18.80;99.90
39677;DHT22;27789;50.840;4.386;2022-09-09T11:57:37;18.80;99.90
39677;DHT22;27789;50.840;4.386;2022-09-09T12:00:03;18.90;99.90
39677;DHT22;27789;50.840;4.386;2022-09-09T12:02:29;18.90;99.90
39677;DHT22;27789;50.840;4.386;2022-09-09T12:07:41;18.90;99.90
39677;DHT22;27789;50.840;4.386;2022-09-09T12:12:53;18.80;99.90
39677;DHT22;27789;50.840;4.386;2022-09-09T12:17:49;18.70;99.90
39677;DHT22;27789;50.840;4.386;2022-09-09T12:30:39;18.50;99.90
39677;DHT22;27789;50.840;4.386;2022-09-09T12:33:15;18.70;99.90
39677;DHT22;27789;50.840;4.386;2022-09-09T12:35:42;18.90;99.90
39677;DHT22;27789;50.840;4.386;2022-09-09T12:38:10;19.10;99.90
39677;DHT22;27789;50.840;4.386;2022-09-09T12:40:38;19.30;99.90
39677;DHT22;27789;50.840;4.386;2022-09-09T12:45:41;19.20;99.90
39677;DHT22;27789;50.840;4.386;2022-09-09T12:48:07;19.30;99.90
39677;DHT22;27789;50.840;4.386;2022-09-09T12:50:35;19.30;99.90
39677;DHT22;27789;50.840;4.386;2022-09-09T12:53:09;19.50;99.90
39677;DHT22;27789;50.840;4.386;2022-09-09T12:55:36;19.60;99.90
39677;DHT22;27789;50.840;4.386;2022-09-09T12:58:02;19.60;99.90
39677;DHT22;27789;50.840;4.386;2022-09-09T13:00:30;19.80;99.90
39677;DHT22;27789;50.840;4.386;2022-09-09T13:02:57;20.00;99.90
39677;DHT22;27789;50.840;4.386;2022-09-09T13:05:25;20.20;99.90
39677;DHT22;27789;50.840;4.386;2022-09-09T13:07:51;20.80;99.90
39677;DHT22;27789;50.840;4.386;2022-09-09T13:10:24;21.00;99.90
39677;DHT22;27789;50.840;4.386;2022-09-09T13:12:52;21.10;99.90
39677;DHT22;27789;50.840;4.386;2022-09-09T13:15:22;21.00;99.90
39677;DHT22;27789;50.840;4.386;2022-09-09T13:17:51;20.90;99.90
39677;DHT22;27789;50.840;4.386;2022-09-09T13:20:18;20.90;99.90
39677;DHT22;27789;50.840;4.386;2022-09-09T13:22:44;20.70;99.90
39677;DHT22;27789;50.840;4.386;2022-09-09T13:27:38;20.80;99.90
39677;DHT22;27789;50.840;4.386;2022-09-09T13:32:40;20.60;99.90
39677;DHT22;27789;50.840;4.386;2022-09-09T13:35:22;20.80;99.90
39677;DHT22;27789;50.840;4.386;2022-09-09T13:37:48;21.00;99.90
39677;DHT22;27789;50.840;4.386;2022-09-09T13:40:20;21.10;99.90
39677;DHT22;27789;50.840;4.386;2022-09-09T13:42:46;21.20;99.90
39677;DHT22;27789;50.840;4.386;2022-09-09T13:45:17;21.40;99.90
39677;DHT22;27789;50.840;4.386;2022-09-09T13:47:43;21.40;99.90
39677;DHT22;27789;50.840;4.386;2022-09-09T13:52:48;21.20;99.90
39677;DHT22;27789;50.840;4.386;2022-09-09T13:55:16;21.30;99.90
39677;DHT22;27789;50.840;4.386;2022-09-09T14:00:18;21.40;99.90
39677;DHT22;27789;50.840;4.386;2022-09-09T14:02:44;21.30;99.90
39677;DHT22;27789;50.840;4.386;2022-09-09T14:05:09;21.20;99.90
39677;DHT22;27789;50.840;4.386;2022-09-09T14:07:37;21.30;99.90
39677;DHT22;27789;50.840;4.386;2022-09-09T14:10:04;21.40;99.90
39677;DHT22;27789;50.840;4.386;2022-09-09T14:12:29;21.50;99.90
39677;DHT22;27789;50.840;4.386;2022-09-09T14:14:55;21.40;99.90
39677;DHT22;27789;50.840;4.386;2022-09-09T14:17:20;21.30;99.90
39677;DHT22;27789;50.840;4.386;2022-09-09T14:19:47;21.20;99.90
39677;DHT22;27789;50.840;4.386;2022-09-09T14:22:13;21.00;99.90
39677;DHT22;27789;50.840;4.386;2022-09-09T14:24:38;20.80;99.90
39677;DHT22;27789;50.840;4.386;2022-09-09T14:27:04;20.60;99.90
39677;DHT22;27789;50.840;4.386;2022-09-09T14:29:30;20.50;99.90
39677;DHT22;27789;50.840;4.386;2022-09-09T14:31:56;20.40;99.90
39677;DHT22;27789;50.840;4.386;2022-09-09T14:34:21;20.40;99.90
39677;DHT22;27789;50.840;4.386;2022-09-09T14:36:47;20.60;99.90
39677;DHT22;27789;50.840;4.386;2022-09-09T14:39:12;20.80;99.90
39677;DHT22;27789;50.840;4.386;2022-09-09T14:41:38;20.80;99.90
39677;DHT22;27789;50.840;4.386;2022-09-09T14:44:03;20.60;99.90
39677;DHT22;27789;50.840;4.386;2022-09-09T14:46:29;20.60;99.90
39677;DHT22;27789;50.840;4.386;2022-09-09T14:48:55;20.60;99.90
39677;DHT22;27789;50.840;4.386;2022-09-09T14:51:21;20.60;99.90
39677;DHT22;27789;50.840;4.386;2022-09-09T14:53:53;20.80;99.90
39677;DHT22;27789;50.840;4.386;2022-09-09T14:56:19;20.90;99.90
39677;DHT22;27789;50.840;4.386;2022-09-09T14:58:46;21.00;99.90
39677;DHT22;27789;50.840;4.386;2022-09-09T15:01:14;20.90;99.90
39677;DHT22;27789;50.840;4.386;2022-09-09T15:03:40;20.80;99.90
39677;DHT22;27789;50.840;4.386;2022-09-09T15:06:07;20.80;99.90
39677;DHT22;27789;50.840;4.386;2022-09-09T15:08:34;20.80;99.90
39677;DHT22;27789;50.840;4.386;2022-09-09T15:11:00;20.70;99.90
39677;DHT22;27789;50.840;4.386;2022-09-09T15:13:26;20.80;99.90
39677;DHT22;27789;50.840;4.386;2022-09-09T15:15:52;20.90;99.90
39677;DHT22;27789;50.840;4.386;2022-09-09T15:18:19;20.90;99.90
39677;DHT22;27789;50.840;4.386;2022-09-09T15:20:45;20.90;99.90
39677;DHT22;27789;50.840;4.386;2022-09-09T15:23:11;21.00;99.90
39677;DHT22;27789;50.840;4.386;2022-09-09T15:25:37;21.00;99.90
39677;DHT22;27789;50.840;4.386;2022-09-09T15:28:02;21.10;99.90
39677;DHT22;27789;50.840;4.386;2022-09-09T15:30:28;21.00;99.90
39677;DHT22;27789;50.840;4.386;2022-09-09T15:32:53;21.00;99.90
39677;DHT22;27789;50.840;4.386;2022-09-09T15:35:20;20.90;99.90
39677;DHT22;27789;50.840;4.386;2022-09-09T15:37:45;20.80;99.90
39677;DHT22;27789;50.840;4.386;2022-09-09T15:40:11;20.70;99.90
39677;DHT22;27789;50.840;4.386;2022-09-09T15:42:36;20.70;99.90
39677;DHT22;27789;50.840;4.386;2022-09-09T15:45:02;20.70;99.90
39677;DHT22;27789;50.840;4.386;2022-09-09T15:47:30;20.80;99.90
39677;DHT22;27789;50.840;4.386;2022-09-09T15:49:55;20.80;99.90
39677;DHT22;27789;50.840;4.386;2022-09-09T15:52:21;20.80;99.90
39677;DHT22;27789;50.840;4.386;2022-09-09T15:54:46;20.70;99.90
39677;DHT22;27789;50.840;4.386;2022-09-09T15:57:13;21.10;99.90
39677;DHT22;27789;50.840;4.386;2022-09-09T15:59:39;21.80;99.90
39677;DHT22;27789;50.840;4.386;2022-09-09T16:02:05;21.50;99.90
39677;DHT22;27789;50.840;4.386;2022-09-09T16:04:31;21.30;99.90
39677;DHT22;27789;50.840;4.386;2022-09-09T16:07:00;20.90;99.90
39677;DHT22;27789;50.840;4.386;2022-09-09T16:09:26;20.70;99.90
39677;DHT22;27789;50.840;4.386;2022-09-09T16:11:52;20.60;99.90
39677;DHT22;27789;50.840;4.386;2022-09-09T16:14:19;20.50;99.90
39677;DHT22;27789;50.840;4.386;2022-09-09T16:16:44;20.40;99.90
39677;DHT22;27789;50.840;4.386;2022-09-09T16:19:11;20.40;99.90
39677;DHT22;27789;50.840;4.386;2022-09-09T16:21:56;20.40;99.90
39677;DHT22;27789;50.840;4.386;2022-09-09T16:24:21;20.30;99.90
39677;DHT22;27789;50.840;4.386;2022-09-09T16:26:51;20.30;99.90
39677;DHT22;27789;50.840;4.386;2022-09-09T16:29:18;20.30;99.90
39677;DHT22;27789;50.840;4.386;2022-09-09T16:31:44;20.20;99.90
39677;DHT22;27789;50.840;4.386;2022-09-09T16:34:10;20.00;99.90
39677;DHT22;27789;50.840;4.386;2022-09-09T16:36:36;19.70;99.90
39677;DHT22;27789;50.840;4.386;2022-09-09T16:39:03;19.50;99.90
39677;DHT22;27789;50.840;4.386;2022-09-09T16:41:29;19.50;99.90
39677;DHT22;27789;50.840;4.386;2022-09-09T16:43:58;19.50;99.90
39677;DHT22;27789;50.840;4.386;2022-09-09T16:46:25;19.50;99.90
39677;DHT22;27789;50.840;4.386;2022-09-09T16:48:51;19.60;99.90
39677;DHT22;27789;50.840;4.386;2022-09-09T16:51:18;19.60;99.90
39677;DHT22;27789;50.840;4.386;2022-09-09T16:53:43;19.60;99.90
39677;DHT22;27789;50.840;4.386;2022-09-09T16:56:13;19.60;99.90
39677;DHT22;27789;50.840;4.386;2022-09-09T16:58:39;19.60;99.90
39677;DHT22;27789;50.840;4.386;2022-09-09T17:01:05;19.60;99.90
39677;DHT22;27789;50.840;4.386;2022-09-09T17:03:30;19.50;99.90
39677;DHT22;27789;50.840;4.386;2022-09-09T17:05:57;19.50;99.90
39677;DHT22;27789;50.840;4.386;2022-09-09T17:08:23;19.50;99.90
39677;DHT22;27789;50.840;4.386;2022-09-09T17:10:49;19.50;99.90
39677;DHT22;27789;50.840;4.386;2022-09-09T17:13:15;19.40;99.90
39677;DHT22;27789;50.840;4.386;2022-09-09T17:15:41;19.40;99.90
39677;DHT22;27789;50.840;4.386;2022-09-09T17:18:10;19.20;99.90
39677;DHT22;27789;50.840;4.386;2022-09-09T17:20:36;19.20;99.90
39677;DHT22;27789;50.840;4.386;2022-09-09T17:23:02;19.10;99.90
39677;DHT22;27789;50.840;4.386;2022-09-09T17:25:27;19.00;99.90
39677;DHT22;27789;50.840;4.386;2022-09-09T17:27:53;19.00;99.90
39677;DHT22;27789;50.840;4.386;2022-09-09T17:30:18;18.90;99.90
39677;DHT22;27789;50.840;4.386;2022-09-09T17:32:44;18.90;99.90
39677;DHT22;27789;50.840;4.386;2022-09-09T17:35:11;18.80;99.90
39677;DHT22;27789;50.840;4.386;2022-09-09T17:37:37;18.80;99.90
39677;DHT22;27789;50.840;4.386;2022-09-09T17:40:02;18.70;99.90
39677;DHT22;27789;50.840;4.386;2022-09-09T17:42:28;18.70;99.90
39677;DHT22;27789;50.840;4.386;2022-09-09T17:44:53;18.70;99.90
39677;DHT22;27789;50.840;4.386;2022-09-09T17:47:19;18.70;99.90
39677;DHT22;27789;50.840;4.386;2022-09-09T17:49:45;18.70;99.90
39677;DHT22;27789;50.840;4.386;2022-09-09T17:52:11;18.60;99.90
39677;DHT22;27789;50.840;4.386;2022-09-09T17:54:37;18.60;99.90
39677;DHT22;27789;50.840;4.386;2022-09-09T17:57:02;18.60;99.90
39677;DHT22;27789;50.840;4.386;2022-09-09T17:59:28;18.60;99.90
39677;DHT22;27789;50.840;4.386;2022-09-09T18:01:54;18.60;99.90
39677;DHT22;27789;50.840;4.386;2022-09-09T18:04:19;18.50;99.90
39677;DHT22;27789;50.840;4.386;2022-09-09T18:06:46;18.50;99.90
39677;DHT22;27789;50.840;4.386;2022-09-09T18:09:12;18.50;99.90
39677;DHT22;27789;50.840;4.386;2022-09-09T18:11:39;18.50;99.90
39677;DHT22;27789;50.840;4.386;2022-09-09T18:14:07;18.50;99.90
39677;DHT22;27789;50.840;4.386;2022-09-09T18:16:35;18.50;99.90